createdAt,value
2022-12-28T00:00:48.059Z,1014.88
2022-12-28T00:01:48.111Z,1014.85
2022-12-28T00:02:48.149Z,1014.77
2022-12-28T00:03:47.987Z,1014.78
2022-12-28T00:04:48.025Z,1014.79
2022-12-28T00:05:47.990Z,1014.77
2022-12-28T00:06:47.977Z,1014.77
2022-12-28T00:07:48.008Z,1014.76
2022-12-28T00:08:47.988Z,1014.72
2022-12-28T00:09:47.963Z,1014.71
2022-12-28T00:11:08.724Z,1014.65
2022-12-28T00:11:47.974Z,1014.63
2022-12-28T00:12:47.941Z,1014.68
2022-12-28T00:13:47.944Z,1014.63
2022-12-28T00:14:47.927Z,1014.62
2022-12-28T00:15:47.926Z,1014.62
2022-12-28T00:16:47.969Z,1014.59
2022-12-28T00:17:47.910Z,1014.64
2022-12-28T00:18:47.905Z,1014.64
2022-12-28T00:19:47.924Z,1014.71
2022-12-28T00:20:47.924Z,1014.67
2022-12-28T00:21:47.901Z,1014.76
2022-12-28T00:22:47.905Z,1014.74
2022-12-28T00:23:47.906Z,1014.71
2022-12-28T00:24:47.897Z,1014.71
2022-12-28T00:25:47.895Z,1014.66
2022-12-28T00:26:47.876Z,1014.65
2022-12-28T00:27:47.888Z,1014.69
2022-12-28T00:28:47.861Z,1014.68
2022-12-28T00:29:47.853Z,1014.68
2022-12-28T00:30:47.870Z,1014.66
2022-12-28T00:31:47.942Z,1014.67
2022-12-28T00:32:47.839Z,1014.66
2022-12-28T00:33:47.857Z,1014.65
2022-12-28T00:34:47.838Z,1014.57
2022-12-28T00:35:47.835Z,1014.61
2022-12-28T00:37:09.999Z,1014.53
2022-12-28T00:37:47.818Z,1014.40
2022-12-28T00:38:47.816Z,1014.38
2022-12-28T00:39:47.802Z,1014.56
2022-12-28T00:40:47.809Z,1014.53
2022-12-28T00:41:47.830Z,1014.47
2022-12-28T00:42:47.819Z,1014.52
2022-12-28T00:43:47.792Z,1014.44
2022-12-28T00:44:47.793Z,1014.46
2022-12-28T00:45:47.827Z,1014.43
2022-12-28T00:46:47.813Z,1014.42
2022-12-28T00:47:47.779Z,1014.44
2022-12-28T00:48:47.760Z,1014.42
2022-12-28T00:49:47.770Z,1014.42
2022-12-28T00:50:47.781Z,1014.40
2022-12-28T00:51:47.777Z,1014.39
2022-12-28T00:52:47.773Z,1014.40
2022-12-28T00:53:47.749Z,1014.36
2022-12-28T00:54:47.754Z,1014.35
2022-12-28T00:55:47.750Z,1014.32
2022-12-28T00:56:47.720Z,1014.37
2022-12-28T00:57:47.742Z,1014.25
2022-12-28T00:58:47.732Z,1014.21
2022-12-28T00:59:47.739Z,1014.18
2022-12-28T01:00:47.787Z,1014.20
2022-12-28T01:01:47.823Z,1014.16
2022-12-28T01:02:47.786Z,1014.11
2022-12-28T01:03:47.700Z,1014.08
2022-12-28T01:04:47.679Z,1014.00
2022-12-28T01:05:47.691Z,1014.03
2022-12-28T01:06:47.680Z,1013.94
2022-12-28T01:07:47.692Z,1013.95
2022-12-28T01:08:47.694Z,1013.93
2022-12-28T01:09:47.672Z,1013.96
2022-12-28T01:10:47.655Z,1013.90
2022-12-28T01:11:47.660Z,1013.93
2022-12-28T01:12:47.647Z,1013.85
2022-12-28T01:13:47.642Z,1013.86
2022-12-28T01:14:47.646Z,1013.85
2022-12-28T01:15:47.644Z,1013.86
2022-12-28T01:16:47.706Z,1013.78
2022-12-28T01:17:47.633Z,1013.83
2022-12-28T01:18:47.625Z,1013.83
2022-12-28T01:19:53.792Z,1013.82
2022-12-28T01:20:47.604Z,1013.71
2022-12-28T01:21:47.611Z,1013.77
2022-12-28T01:22:47.604Z,1013.78
2022-12-28T01:23:47.607Z,1013.77
2022-12-28T01:24:47.637Z,1013.74
2022-12-28T01:25:47.612Z,1013.70
2022-12-28T01:26:47.583Z,1013.75
2022-12-28T01:27:47.587Z,1013.76
2022-12-28T01:28:47.585Z,1013.73
2022-12-28T01:29:47.567Z,1013.74
2022-12-28T01:30:47.575Z,1013.71
2022-12-28T01:31:47.646Z,1013.68
2022-12-28T01:32:47.570Z,1013.69
2022-12-28T01:33:47.569Z,1013.65
2022-12-28T01:34:47.574Z,1013.64
2022-12-28T01:35:47.529Z,1013.61
2022-12-28T01:36:47.532Z,1013.62
2022-12-28T01:37:47.539Z,1013.63
2022-12-28T01:38:47.537Z,1013.59
2022-12-28T01:39:47.525Z,1013.56
2022-12-28T01:40:47.562Z,1013.56
2022-12-28T01:41:47.521Z,1013.57
2022-12-28T01:42:47.535Z,1013.56
2022-12-28T01:43:47.490Z,1013.51
2022-12-28T01:44:47.516Z,1013.50
2022-12-28T01:45:47.559Z,1013.46
2022-12-28T01:46:47.492Z,1013.46
2022-12-28T01:47:47.487Z,1013.38
2022-12-28T01:48:47.485Z,1013.36
2022-12-28T01:49:47.493Z,1013.32
2022-12-28T01:50:47.482Z,1013.33
2022-12-28T01:51:47.477Z,1013.31
2022-12-28T01:52:47.470Z,1013.34
2022-12-28T01:53:47.454Z,1013.30
2022-12-28T01:54:47.450Z,1013.32
2022-12-28T01:55:47.449Z,1013.25
2022-12-28T01:56:47.466Z,1013.19
2022-12-28T01:57:47.430Z,1013.16
2022-12-28T01:58:47.440Z,1013.17
2022-12-28T01:59:47.445Z,1013.14
2022-12-28T02:00:47.443Z,1013.08
2022-12-28T02:01:47.540Z,1013.04
2022-12-28T02:02:47.478Z,1013.01
2022-12-28T02:03:47.415Z,1012.99
2022-12-28T02:04:47.425Z,1012.98
2022-12-28T02:05:47.388Z,1012.91
2022-12-28T02:06:47.401Z,1012.96
2022-12-28T02:07:47.405Z,1012.95
2022-12-28T02:08:47.387Z,1012.91
2022-12-28T02:10:41.750Z,1012.91
2022-12-28T02:10:47.389Z,1012.94
2022-12-28T02:11:47.361Z,1012.88
2022-12-28T02:12:47.420Z,1012.88
2022-12-28T02:13:47.348Z,1012.86
2022-12-28T02:14:47.372Z,1012.85
2022-12-28T02:15:47.353Z,1012.86
2022-12-28T02:16:47.433Z,1012.82
2022-12-28T02:17:47.350Z,1012.81
2022-12-28T02:18:47.371Z,1012.85
2022-12-28T02:19:47.340Z,1012.85
2022-12-28T02:20:47.339Z,1012.84
2022-12-28T02:21:47.342Z,1012.85
2022-12-28T02:22:47.308Z,1012.81
2022-12-28T02:23:47.302Z,1012.79
2022-12-28T02:24:47.322Z,1012.80
2022-12-28T02:25:47.308Z,1012.78
2022-12-28T02:26:47.325Z,1012.75
2022-12-28T02:27:47.287Z,1012.73
2022-12-28T02:28:47.316Z,1012.72
2022-12-28T02:29:47.273Z,1012.75
2022-12-28T02:30:47.315Z,1012.69
2022-12-28T02:31:47.279Z,1012.65
2022-12-28T02:32:47.269Z,1012.61
2022-12-28T02:33:47.272Z,1012.57
2022-12-28T02:34:47.322Z,1012.61
2022-12-28T02:35:47.268Z,1012.60
2022-12-28T02:36:47.245Z,1012.57
2022-12-28T02:37:47.249Z,1012.59
2022-12-28T02:38:47.254Z,1012.56
2022-12-28T02:39:47.238Z,1012.59
2022-12-28T02:40:47.242Z,1012.59
2022-12-28T02:41:47.231Z,1012.61
2022-12-28T02:42:47.246Z,1012.56
2022-12-28T02:43:47.216Z,1012.51
2022-12-28T02:44:47.247Z,1012.55
2022-12-28T02:45:47.255Z,1012.50
2022-12-28T02:46:47.211Z,1012.50
2022-12-28T02:47:47.186Z,1012.50
2022-12-28T02:48:47.188Z,1012.46
2022-12-28T02:49:47.210Z,1012.45
2022-12-28T02:50:47.179Z,1012.45
2022-12-28T02:51:47.167Z,1012.40
2022-12-28T02:52:47.176Z,1012.35
2022-12-28T02:53:47.182Z,1012.35
2022-12-28T02:54:47.176Z,1012.26
2022-12-28T02:55:47.150Z,1012.25
2022-12-28T02:56:47.156Z,1012.26
2022-12-28T02:57:47.144Z,1012.26
2022-12-28T02:58:47.151Z,1012.25
2022-12-28T02:59:47.163Z,1012.23
2022-12-28T03:00:47.165Z,1012.25
2022-12-28T03:01:47.306Z,1012.20
2022-12-28T03:02:47.345Z,1012.13
2022-12-28T03:03:47.137Z,1012.19
2022-12-28T03:04:47.126Z,1012.15
2022-12-28T03:05:47.125Z,1012.15
2022-12-28T03:06:47.142Z,1012.10
2022-12-28T03:07:47.122Z,1012.05
2022-12-28T03:08:47.090Z,1012.05
2022-12-28T03:09:47.079Z,1012.01
2022-12-28T03:10:47.081Z,1012.03
2022-12-28T03:11:47.131Z,1012.06
2022-12-28T03:12:47.078Z,1011.96
2022-12-28T03:13:47.086Z,1011.97
2022-12-28T03:14:47.073Z,1011.97
2022-12-28T03:15:47.129Z,1011.92
2022-12-28T03:16:47.100Z,1011.88
2022-12-28T03:17:47.077Z,1011.90
2022-12-28T03:18:47.053Z,1011.84
2022-12-28T03:19:47.046Z,1011.82
2022-12-28T03:20:47.034Z,1011.82
2022-12-28T03:21:47.043Z,1011.85
2022-12-28T03:22:47.042Z,1011.79
2022-12-28T03:23:47.017Z,1011.80
2022-12-28T03:24:47.031Z,1011.78
2022-12-28T03:25:47.001Z,1011.77
2022-12-28T03:26:47.009Z,1011.68
2022-12-28T03:27:47.000Z,1011.70
2022-12-28T03:28:46.994Z,1011.74
2022-12-28T03:29:47.006Z,1011.72
2022-12-28T03:30:47.034Z,1011.70
2022-12-28T03:31:46.974Z,1011.66
2022-12-28T03:32:47.013Z,1011.63
2022-12-28T03:33:47.009Z,1011.61
2022-12-28T03:34:46.965Z,1011.60
2022-12-28T03:35:46.969Z,1011.58
2022-12-28T03:36:46.958Z,1011.55
2022-12-28T03:37:46.949Z,1011.58
2022-12-28T03:38:46.960Z,1011.53
2022-12-28T03:39:46.947Z,1011.52
2022-12-28T03:40:46.951Z,1011.51
2022-12-28T03:41:46.966Z,1011.47
2022-12-28T03:42:46.971Z,1011.48
2022-12-28T03:43:46.933Z,1011.45
2022-12-28T03:44:46.935Z,1011.44
2022-12-28T03:45:47.684Z,1011.38
2022-12-28T03:46:46.955Z,1011.38
2022-12-28T03:47:46.912Z,1011.35
2022-12-28T03:48:46.940Z,1011.28
2022-12-28T03:49:46.895Z,1011.29
2022-12-28T03:50:46.906Z,1011.32
2022-12-28T03:51:46.881Z,1011.28
2022-12-28T03:52:46.895Z,1011.28
2022-12-28T03:53:46.883Z,1011.24
2022-12-28T03:54:46.888Z,1011.22
2022-12-28T03:55:46.881Z,1011.21
2022-12-28T03:56:47.091Z,1011.20
2022-12-28T03:57:46.869Z,1011.20
2022-12-28T03:58:46.855Z,1011.19
2022-12-28T03:59:46.851Z,1011.20
2022-12-28T04:00:46.848Z,1011.16
2022-12-28T04:01:46.967Z,1011.15
2022-12-28T04:02:46.958Z,1011.15
2022-12-28T04:03:46.827Z,1011.13
2022-12-28T04:04:46.852Z,1011.10
2022-12-28T04:05:46.829Z,1011.04
2022-12-28T04:06:46.819Z,1011.02
2022-12-28T04:07:46.821Z,1011.04
2022-12-28T04:08:46.836Z,1011.10
2022-12-28T04:09:46.825Z,1011.10
2022-12-28T04:10:46.807Z,1011.08
2022-12-28T04:11:46.809Z,1011.12
2022-12-28T04:12:46.808Z,1011.14
2022-12-28T04:13:46.816Z,1011.17
2022-12-28T04:14:46.783Z,1011.11
2022-12-28T04:15:46.827Z,1011.18
2022-12-28T04:16:46.771Z,1011.14
2022-12-28T04:17:46.759Z,1011.16
2022-12-28T04:18:46.775Z,1011.09
2022-12-28T04:19:46.746Z,1011.11
2022-12-28T04:21:28.660Z,1011.06
2022-12-28T04:22:28.634Z,1011.07
2022-12-28T04:23:28.635Z,1011.09
2022-12-28T04:24:28.607Z,1011.07
2022-12-28T04:25:28.612Z,1011.00
2022-12-28T04:26:28.592Z,1010.98
2022-12-28T04:27:28.584Z,1010.97
2022-12-28T04:28:28.608Z,1010.96
2022-12-28T04:29:28.579Z,1010.95
2022-12-28T04:30:28.591Z,1010.95
2022-12-28T04:31:28.620Z,1010.95
2022-12-28T04:32:28.580Z,1010.93
2022-12-28T04:33:28.576Z,1010.90
2022-12-28T04:34:28.562Z,1010.89
2022-12-28T04:35:28.549Z,1010.86
2022-12-28T04:36:28.549Z,1010.89
2022-12-28T04:37:28.561Z,1010.84
2022-12-28T04:38:28.557Z,1010.84
2022-12-28T04:39:28.544Z,1010.85
2022-12-28T04:40:28.564Z,1010.85
2022-12-28T04:41:28.525Z,1010.82
2022-12-28T04:42:28.566Z,1010.88
2022-12-28T04:43:28.528Z,1010.90
2022-12-28T04:44:28.531Z,1010.89
2022-12-28T04:45:28.514Z,1010.93
2022-12-28T04:46:28.563Z,1010.90
2022-12-28T04:47:28.513Z,1010.90
2022-12-28T04:48:28.511Z,1010.92
2022-12-28T04:49:28.501Z,1010.87
2022-12-28T04:50:28.503Z,1010.83
2022-12-28T04:51:28.484Z,1010.88
2022-12-28T04:52:28.477Z,1010.85
2022-12-28T04:53:28.508Z,1010.83
2022-12-28T04:54:28.476Z,1010.82
2022-12-28T04:55:32.282Z,1010.83
2022-12-28T04:56:28.459Z,1010.86
2022-12-28T04:57:28.459Z,1010.83
2022-12-28T04:58:28.460Z,1010.76
2022-12-28T04:59:28.443Z,1010.70
2022-12-28T05:00:28.532Z,1010.71
2022-12-28T05:01:28.566Z,1010.69
2022-12-28T05:02:28.587Z,1010.69
2022-12-28T05:03:28.425Z,1010.68
2022-12-28T05:04:28.423Z,1010.64
2022-12-28T05:05:28.438Z,1010.64
2022-12-28T05:06:28.411Z,1010.58
2022-12-28T05:07:28.413Z,1010.53
2022-12-28T05:08:28.405Z,1010.54
2022-12-28T05:09:28.436Z,1010.50
2022-12-28T05:10:28.421Z,1010.50
2022-12-28T05:11:28.383Z,1010.50
2022-12-28T05:12:28.387Z,1010.49
2022-12-28T05:13:28.382Z,1010.45
2022-12-28T05:14:33.618Z,1010.47
2022-12-28T05:15:28.382Z,1010.41
2022-12-28T05:16:28.429Z,1010.39
2022-12-28T05:17:28.359Z,1010.35
2022-12-28T05:18:28.367Z,1010.37
2022-12-28T05:19:28.349Z,1010.37
2022-12-28T05:20:28.362Z,1010.35
2022-12-28T05:21:28.351Z,1010.31
2022-12-28T05:22:28.337Z,1010.25
2022-12-28T05:23:28.331Z,1010.31
2022-12-28T05:24:28.339Z,1010.30
2022-12-28T05:25:28.352Z,1010.32
2022-12-28T05:26:28.342Z,1010.32
2022-12-28T05:27:28.309Z,1010.30
2022-12-28T05:28:28.328Z,1010.30
2022-12-28T05:29:28.312Z,1010.31
2022-12-28T05:30:28.301Z,1010.29
2022-12-28T05:31:28.354Z,1010.34
2022-12-28T05:32:28.297Z,1010.37
2022-12-28T05:33:28.287Z,1010.32
2022-12-28T05:34:28.302Z,1010.37
2022-12-28T05:35:28.289Z,1010.34
2022-12-28T05:36:28.285Z,1010.35
2022-12-28T05:37:28.284Z,1010.38
2022-12-28T05:38:28.280Z,1010.37
2022-12-28T05:39:28.271Z,1010.39
2022-12-28T05:40:28.273Z,1010.39
2022-12-28T05:41:28.314Z,1010.31
2022-12-28T05:42:28.280Z,1010.34
2022-12-28T05:43:28.269Z,1010.38
2022-12-28T05:44:28.240Z,1010.37
2022-12-28T05:45:28.224Z,1010.33
2022-12-28T05:46:28.266Z,1010.35
2022-12-28T05:47:28.217Z,1010.33
2022-12-28T05:48:28.227Z,1010.33
2022-12-28T05:49:28.211Z,1010.33
2022-12-28T05:50:28.219Z,1010.33
2022-12-28T05:51:28.231Z,1010.29
2022-12-28T05:52:28.212Z,1010.28
2022-12-28T05:53:28.207Z,1010.30
2022-12-28T05:54:28.189Z,1010.26
2022-12-28T05:55:28.196Z,1010.32
2022-12-28T05:56:28.215Z,1010.29
2022-12-28T05:57:28.307Z,1010.28
2022-12-28T05:58:28.232Z,1010.27
2022-12-28T05:59:28.177Z,1010.29
2022-12-28T06:00:28.170Z,1010.30
2022-12-28T06:01:28.212Z,1010.28
2022-12-28T06:02:28.257Z,1010.24
2022-12-28T06:03:28.308Z,1010.25
2022-12-28T06:04:28.155Z,1010.23
2022-12-28T06:05:28.159Z,1010.24
2022-12-28T06:06:28.144Z,1010.23
2022-12-28T06:07:28.154Z,1010.24
2022-12-28T06:08:28.138Z,1010.17
2022-12-28T06:09:28.141Z,1010.15
2022-12-28T06:10:28.131Z,1010.15
2022-12-28T06:11:28.130Z,1010.14
2022-12-28T06:12:28.108Z,1010.13
2022-12-28T06:13:28.138Z,1010.10
2022-12-28T06:14:28.113Z,1010.06
2022-12-28T06:15:28.097Z,1010.07
2022-12-28T06:16:28.220Z,1010.08
2022-12-28T06:17:28.106Z,1010.06
2022-12-28T06:18:28.082Z,1010.11
2022-12-28T06:19:28.079Z,1010.01
2022-12-28T06:20:28.072Z,1010.09
2022-12-28T06:21:28.083Z,1010.08
2022-12-28T06:22:28.060Z,1010.04
2022-12-28T06:23:28.070Z,1009.98
2022-12-28T06:24:28.062Z,1010.03
2022-12-28T06:25:28.066Z,1009.97
2022-12-28T06:26:28.067Z,1009.97
2022-12-28T06:27:28.078Z,1010.00
2022-12-28T06:28:28.060Z,1009.97
2022-12-28T06:29:28.086Z,1010.00
2022-12-28T06:30:28.041Z,1009.95
2022-12-28T06:31:28.071Z,1009.92
2022-12-28T06:32:28.053Z,1009.94
2022-12-28T06:33:28.033Z,1009.92
2022-12-28T06:34:28.009Z,1009.91
2022-12-28T06:35:28.018Z,1009.89
2022-12-28T06:36:27.999Z,1009.94
2022-12-28T06:37:28.013Z,1009.81
2022-12-28T06:38:28.004Z,1009.85
2022-12-28T06:39:28.002Z,1009.84
2022-12-28T06:40:39.656Z,1009.80
2022-12-28T06:41:27.996Z,1009.76
2022-12-28T06:42:27.978Z,1009.78
2022-12-28T06:43:27.964Z,1009.76
2022-12-28T06:44:27.962Z,1009.76
2022-12-28T06:45:28.006Z,1009.76
2022-12-28T06:46:27.968Z,1009.77
2022-12-28T06:47:27.961Z,1009.71
2022-12-28T06:48:27.959Z,1009.67
2022-12-28T06:49:27.948Z,1009.75
2022-12-28T06:50:27.931Z,1009.72
2022-12-28T06:51:27.955Z,1009.77
2022-12-28T06:52:27.934Z,1009.79
2022-12-28T06:53:27.944Z,1009.77
2022-12-28T06:54:27.936Z,1009.75
2022-12-28T06:55:27.922Z,1009.73
2022-12-28T06:56:27.922Z,1009.75
2022-12-28T06:57:27.906Z,1009.72
2022-12-28T06:58:27.910Z,1009.78
2022-12-28T06:59:27.915Z,1009.74
2022-12-28T07:00:27.912Z,1009.76
2022-12-28T07:01:27.987Z,1009.73
2022-12-28T07:02:28.056Z,1009.83
2022-12-28T07:03:27.878Z,1009.82
2022-12-28T07:04:27.881Z,1009.77
2022-12-28T07:05:27.900Z,1009.78
2022-12-28T07:06:27.881Z,1009.79
2022-12-28T07:07:27.871Z,1009.73
2022-12-28T07:08:27.850Z,1009.77
2022-12-28T07:09:27.878Z,1009.75
2022-12-28T07:10:27.869Z,1009.78
2022-12-28T07:11:27.853Z,1009.77
2022-12-28T07:12:27.839Z,1009.78
2022-12-28T07:13:28.423Z,1009.79
2022-12-28T07:14:27.847Z,1009.80
2022-12-28T07:15:27.844Z,1009.76
2022-12-28T07:17:27.855Z,1009.82
2022-12-28T07:18:27.843Z,1009.79
2022-12-28T07:19:27.842Z,1009.80
2022-12-28T07:20:27.871Z,1009.85
2022-12-28T07:21:27.806Z,1009.83
2022-12-28T07:22:27.786Z,1009.85
2022-12-28T07:23:27.795Z,1009.84
2022-12-28T07:24:27.795Z,1009.84
2022-12-28T07:25:27.789Z,1009.85
2022-12-28T07:26:27.781Z,1009.83
2022-12-28T07:27:27.776Z,1009.81
2022-12-28T07:28:27.778Z,1009.83
2022-12-28T07:29:27.762Z,1009.88
2022-12-28T07:30:27.850Z,1009.85
2022-12-28T07:32:17.642Z,1009.86
2022-12-28T07:33:17.664Z,1009.89
2022-12-28T07:34:17.645Z,1009.86
2022-12-28T07:35:17.626Z,1009.85
2022-12-28T07:36:20.363Z,1009.81
2022-12-28T07:37:17.616Z,1009.85
2022-12-28T07:38:21.283Z,1009.85
2022-12-28T07:39:17.943Z,1009.89
2022-12-28T07:40:17.830Z,1009.86
2022-12-28T07:41:17.602Z,1009.82
2022-12-28T07:42:17.655Z,1009.86
2022-12-28T07:43:17.586Z,1009.83
2022-12-28T07:44:17.586Z,1009.75
2022-12-28T07:45:17.571Z,1009.85
2022-12-28T07:46:17.742Z,1009.76
2022-12-28T07:47:17.581Z,1009.83
2022-12-28T07:48:17.588Z,1009.80
2022-12-28T07:49:17.583Z,1009.78
2022-12-28T07:50:17.560Z,1009.78
2022-12-28T07:51:17.551Z,1009.76
2022-12-28T07:52:17.551Z,1009.79
2022-12-28T07:53:22.040Z,1009.75
2022-12-28T07:54:17.546Z,1009.75
2022-12-28T07:55:17.530Z,1009.73
2022-12-28T07:56:17.530Z,1009.76
2022-12-28T07:57:17.537Z,1009.78
2022-12-28T07:58:17.532Z,1009.80
2022-12-28T07:59:17.509Z,1009.78
2022-12-28T08:00:17.521Z,1009.79
2022-12-28T08:01:17.663Z,1009.73
2022-12-28T08:02:17.603Z,1009.80
2022-12-28T08:03:17.522Z,1009.75
2022-12-28T08:04:17.511Z,1009.79
2022-12-28T08:05:17.566Z,1009.75
2022-12-28T08:06:17.488Z,1009.75
2022-12-28T08:07:17.472Z,1009.75
2022-12-28T08:08:17.489Z,1009.72
2022-12-28T08:09:17.469Z,1009.72
2022-12-28T08:10:17.474Z,1009.72
2022-12-28T08:11:17.471Z,1009.73
2022-12-28T08:12:17.473Z,1009.71
2022-12-28T08:13:17.462Z,1009.72
2022-12-28T08:14:17.467Z,1009.76
2022-12-28T08:15:17.472Z,1009.80
2022-12-28T08:16:17.476Z,1009.74
2022-12-28T08:17:20.972Z,1009.78
2022-12-28T08:18:17.432Z,1009.71
2022-12-28T08:19:17.437Z,1009.77
2022-12-28T08:20:17.442Z,1009.73
2022-12-28T08:21:17.431Z,1009.74
2022-12-28T08:22:17.443Z,1009.70
2022-12-28T08:23:17.428Z,1009.74
2022-12-28T08:24:17.412Z,1009.74
2022-12-28T08:25:17.395Z,1009.80
2022-12-28T08:26:17.412Z,1009.79
2022-12-28T08:27:17.396Z,1009.79
2022-12-28T08:28:17.382Z,1009.73
2022-12-28T08:29:17.399Z,1009.70
2022-12-28T08:30:17.390Z,1009.74
2022-12-28T08:31:17.438Z,1009.72
2022-12-28T08:32:17.379Z,1009.72
2022-12-28T08:33:17.362Z,1009.72
2022-12-28T08:34:17.383Z,1009.77
2022-12-28T08:35:17.352Z,1009.67
2022-12-28T08:36:17.381Z,1009.68
2022-12-28T08:37:17.379Z,1009.74
2022-12-28T08:38:17.377Z,1009.78
2022-12-28T08:39:17.338Z,1009.70
2022-12-28T08:40:17.339Z,1009.68
2022-12-28T08:41:17.337Z,1009.69
2022-12-28T08:42:17.325Z,1009.70
2022-12-28T08:43:17.350Z,1009.70
2022-12-28T08:44:17.311Z,1009.71
2022-12-28T08:45:17.325Z,1009.69
2022-12-28T08:46:17.537Z,1009.72
2022-12-28T08:47:17.344Z,1009.69
2022-12-28T08:48:17.306Z,1009.70
2022-12-28T08:49:17.290Z,1009.66
2022-12-28T08:50:20.054Z,1009.74
2022-12-28T08:51:17.319Z,1009.75
2022-12-28T08:52:17.290Z,1009.71
2022-12-28T08:53:17.313Z,1009.75
2022-12-28T08:54:17.291Z,1009.71
2022-12-28T08:55:17.263Z,1009.67
2022-12-28T08:56:17.262Z,1009.74
2022-12-28T08:57:17.251Z,1009.74
2022-12-28T08:58:17.252Z,1009.74
2022-12-28T08:59:17.259Z,1009.77
2022-12-28T09:00:17.254Z,1009.76
2022-12-28T09:01:17.473Z,1009.71
2022-12-28T09:02:17.345Z,1009.77
2022-12-28T09:03:17.396Z,1009.76
2022-12-28T09:04:17.239Z,1009.67
2022-12-28T09:05:17.216Z,1009.71
2022-12-28T09:06:17.219Z,1009.68
2022-12-28T09:07:17.223Z,1009.73
2022-12-28T09:08:17.235Z,1009.67
2022-12-28T09:09:17.325Z,1009.64
2022-12-28T09:10:17.277Z,1009.66
2022-12-28T09:11:17.202Z,1009.66
2022-12-28T09:12:17.206Z,1009.62
2022-12-28T09:13:17.189Z,1009.67
2022-12-28T09:14:23.283Z,1009.62
2022-12-28T09:15:17.172Z,1009.66
2022-12-28T09:16:17.255Z,1009.70
2022-12-28T09:17:17.165Z,1009.60
2022-12-28T09:18:17.205Z,1009.67
2022-12-28T09:19:17.183Z,1009.66
2022-12-28T09:20:17.159Z,1009.71
2022-12-28T09:21:17.149Z,1009.65
2022-12-28T09:22:17.150Z,1009.71
2022-12-28T09:23:17.150Z,1009.70
2022-12-28T09:24:17.178Z,1009.65
2022-12-28T09:25:17.150Z,1009.65
2022-12-28T09:26:17.136Z,1009.69
2022-12-28T09:27:17.127Z,1009.63
2022-12-28T09:28:17.141Z,1009.65
2022-12-28T09:29:17.137Z,1009.62
2022-12-28T09:30:17.123Z,1009.66
2022-12-28T09:31:17.215Z,1009.64
2022-12-28T09:32:17.109Z,1009.66
2022-12-28T09:33:17.094Z,1009.58
2022-12-28T09:34:36.320Z,1009.62
2022-12-28T09:35:17.115Z,1009.57
2022-12-28T09:36:17.087Z,1009.61
2022-12-28T09:37:17.089Z,1009.65
2022-12-28T09:38:17.090Z,1009.63
2022-12-28T09:39:17.229Z,1009.62
2022-12-28T09:40:17.091Z,1009.65
2022-12-28T09:41:17.094Z,1009.61
2022-12-28T09:42:17.068Z,1009.61
2022-12-28T09:43:17.061Z,1009.55
2022-12-28T09:44:17.052Z,1009.63
2022-12-28T09:45:17.068Z,1009.56
2022-12-28T09:46:17.084Z,1009.60
2022-12-28T09:47:17.035Z,1009.60
2022-12-28T09:48:17.051Z,1009.61
2022-12-28T09:49:17.051Z,1009.63
2022-12-28T09:50:17.116Z,1009.67
2022-12-28T09:51:17.034Z,1009.58
2022-12-28T09:52:17.046Z,1009.65
2022-12-28T09:53:17.031Z,1009.60
2022-12-28T09:54:17.022Z,1009.57
2022-12-28T09:55:17.001Z,1009.59
2022-12-28T09:56:17.014Z,1009.62
2022-12-28T09:57:17.038Z,1009.65
2022-12-28T09:58:17.006Z,1009.62
2022-12-28T09:59:17.022Z,1009.69
2022-12-28T10:00:17.043Z,1009.73
2022-12-28T10:01:17.147Z,1009.67
2022-12-28T10:02:17.043Z,1009.65
2022-12-28T10:03:17.077Z,1009.74
2022-12-28T10:04:16.983Z,1009.63
2022-12-28T10:05:16.965Z,1009.69
2022-12-28T10:06:16.970Z,1009.65
2022-12-28T10:07:16.947Z,1009.69
2022-12-28T10:08:20.785Z,1009.70
2022-12-28T10:09:16.956Z,1009.66
2022-12-28T10:10:16.957Z,1009.62
2022-12-28T10:12:00.248Z,1009.67
2022-12-28T10:12:58.961Z,1009.62
2022-12-28T10:13:58.806Z,1009.60
2022-12-28T10:14:58.795Z,1009.65
2022-12-28T10:15:58.854Z,1009.61
2022-12-28T10:16:58.789Z,1009.61
2022-12-28T10:17:58.803Z,1009.64
2022-12-28T10:18:58.789Z,1009.64
2022-12-28T10:19:58.778Z,1009.67
2022-12-28T10:20:58.785Z,1009.56
2022-12-28T10:21:58.771Z,1009.60
2022-12-28T10:22:58.777Z,1009.61
2022-12-28T10:24:58.746Z,1009.57
2022-12-28T10:25:58.743Z,1009.50
2022-12-28T10:26:58.742Z,1009.54
2022-12-28T10:27:58.736Z,1009.52
2022-12-28T10:28:58.773Z,1009.47
2022-12-28T10:29:58.731Z,1009.49
2022-12-28T10:30:58.794Z,1009.47
2022-12-28T10:31:58.715Z,1009.43
2022-12-28T10:33:02.951Z,1009.44
2022-12-28T10:33:58.733Z,1009.40
2022-12-28T10:34:58.749Z,1009.39
2022-12-28T10:35:58.720Z,1009.41
2022-12-28T10:36:58.715Z,1009.37
2022-12-28T10:37:58.702Z,1009.33
2022-12-28T10:38:58.717Z,1009.32
2022-12-28T10:39:58.698Z,1009.28
2022-12-28T10:40:58.695Z,1009.28
2022-12-28T10:41:58.699Z,1009.23
2022-12-28T10:42:58.721Z,1009.28
2022-12-28T10:44:37.419Z,1009.26
2022-12-28T10:44:58.705Z,1009.21
2022-12-28T10:45:58.654Z,1009.18
2022-12-28T10:46:58.693Z,1009.21
2022-12-28T10:47:58.664Z,1009.17
2022-12-28T10:48:58.662Z,1009.20
2022-12-28T10:50:58.658Z,1009.13
2022-12-28T10:51:58.651Z,1009.12
2022-12-28T10:52:58.662Z,1009.14
2022-12-28T10:53:58.628Z,1009.11
2022-12-28T10:55:08.491Z,1009.09
2022-12-28T10:55:58.629Z,1009.04
2022-12-28T10:56:58.617Z,1009.01
2022-12-28T10:58:58.607Z,1009.02
2022-12-28T10:59:58.617Z,1009.04
2022-12-28T11:00:58.754Z,1009.01
2022-12-28T11:01:58.780Z,1009.03
2022-12-28T11:02:58.710Z,1008.98
2022-12-28T11:03:58.587Z,1008.96
2022-12-28T11:04:58.583Z,1008.92
2022-12-28T11:05:58.619Z,1008.94
2022-12-28T11:06:58.590Z,1009.01
2022-12-28T11:07:58.576Z,1008.89
2022-12-28T11:08:58.577Z,1009.02
2022-12-28T11:09:58.561Z,1008.93
2022-12-28T11:10:58.558Z,1008.96
2022-12-28T11:11:58.570Z,1008.97
2022-12-28T11:12:58.553Z,1008.96
2022-12-28T11:13:58.537Z,1008.95
2022-12-28T11:14:58.711Z,1008.96
2022-12-28T11:15:58.601Z,1008.94
2022-12-28T11:16:58.574Z,1008.93
2022-12-28T11:17:58.524Z,1008.97
2022-12-28T11:18:58.541Z,1008.95
2022-12-28T11:19:58.533Z,1008.93
2022-12-28T11:20:58.527Z,1008.93
2022-12-28T11:21:58.525Z,1008.85
2022-12-28T11:22:58.504Z,1008.86
2022-12-28T11:23:58.522Z,1008.92
2022-12-28T11:24:58.514Z,1008.88
2022-12-28T11:25:58.502Z,1008.86
2022-12-28T11:26:58.509Z,1008.85
2022-12-28T11:27:58.501Z,1008.90
2022-12-28T11:28:58.497Z,1008.85
2022-12-28T11:29:58.505Z,1008.85
2022-12-28T11:30:58.474Z,1008.74
2022-12-28T11:31:58.527Z,1008.78
2022-12-28T11:32:58.501Z,1008.74
2022-12-28T11:33:58.478Z,1008.70
2022-12-28T11:34:58.461Z,1008.68
2022-12-28T11:35:59.921Z,1008.72
2022-12-28T11:36:58.446Z,1008.66
2022-12-28T11:37:58.455Z,1008.63
2022-12-28T11:38:58.449Z,1008.70
2022-12-28T11:39:58.546Z,1008.72
2022-12-28T11:40:58.449Z,1008.75
2022-12-28T11:42:58.436Z,1008.68
2022-12-28T11:43:58.423Z,1008.65
2022-12-28T11:44:58.412Z,1008.72
2022-12-28T11:45:58.513Z,1008.69
2022-12-28T11:46:58.424Z,1008.71
2022-12-28T11:47:58.400Z,1008.72
2022-12-28T11:48:58.434Z,1008.73
2022-12-28T11:49:58.398Z,1008.68
2022-12-28T11:50:58.392Z,1008.69
2022-12-28T11:51:58.405Z,1008.66
2022-12-28T11:52:58.377Z,1008.66
2022-12-28T11:53:58.380Z,1008.69
2022-12-28T11:54:58.513Z,1008.65
2022-12-28T11:55:58.379Z,1008.68
2022-12-28T11:56:58.372Z,1008.70
2022-12-28T11:57:58.371Z,1008.69
2022-12-28T11:58:58.366Z,1008.62
2022-12-28T11:59:58.351Z,1008.65
2022-12-28T12:00:58.393Z,1008.68
2022-12-28T12:01:58.416Z,1008.59
2022-12-28T12:02:58.446Z,1008.59
2022-12-28T12:03:58.334Z,1008.60
2022-12-28T12:04:58.343Z,1008.58
2022-12-28T12:05:58.325Z,1008.60
2022-12-28T12:06:58.320Z,1008.55
2022-12-28T12:07:58.335Z,1008.55
2022-12-28T12:08:58.312Z,1008.53
2022-12-28T12:09:58.313Z,1008.47
2022-12-28T12:10:58.303Z,1008.48
2022-12-28T12:11:59.179Z,1008.49
2022-12-28T12:12:58.296Z,1008.47